Time;durP1;ratioP1;P1;durP2;ratioP2;P2;SDS_P1;SDS_P2;PMS_P1;PMS_P2;Temp;Humidity;BMP_temperature;BMP_pressure;BME280_temperature;BME280_humidity;BME280_pressure;Samples;Min_cycle;Max_cycle;Signal;HPM_P1;HPM_P2
2023/12/04 15:24:18;;;;;;;61.80;28.45;;;-1.70;99.90;;;;;;5119840;27;20124;-49
2023/12/04 15:26:43;;;;;;;66.90;30.33;;;-1.80;99.90;;;;;;5118509;28;20370;-50
2023/12/04 15:29:10;;;;;;;65.57;29.33;;;-1.80;99.90;;;;;;5116755;28;20099;-50
2023/12/04 15:31:36;;;;;;;61.45;29.17;;;-1.80;99.90;;;;;;5118871;28;20028;-51
2023/12/04 15:34:03;;;;;;;57.15;28.92;;;-1.80;99.90;;;;;;5118305;28;20508;-50
2023/12/04 15:36:29;;;;;;;57.47;27.33;;;-1.80;99.90;;;;;;5117538;28;20078;-51
2023/12/04 15:38:55;;;;;;;55.27;27.03;;;-1.90;99.90;;;;;;5115951;27;20164;-49
2023/12/04 15:41:20;;;;;;;52.80;25.40;;;-1.90;99.90;;;;;;5116923;28;20039;-50
2023/12/04 15:43:48;;;;;;;56.90;28.13;;;-1.90;99.90;;;;;;5115805;28;20103;-49
2023/12/04 15:46:15;;;;;;;49.13;25.70;;;-1.90;99.90;;;;;;5118023;28;20063;-51
2023/12/04 15:48:40;;;;;;;50.30;26.55;;;-1.90;99.90;;;;;;5116623;28;20663;-49
2023/12/04 15:51:06;;;;;;;52.30;26.35;;;-1.80;99.90;;;;;;5117714;28;20028;-48
2023/12/04 15:53:32;;;;;;;49.42;24.30;;;-1.80;99.90;;;;;;5101182;28;20027;-50
2023/12/04 15:55:57;;;;;;;53.37;25.53;;;-1.80;99.90;;;;;;5117943;28;20627;-51
2023/12/04 15:58:23;;;;;;;49.30;26.33;;;-1.80;99.90;;;;;;5122675;28;20027;-49
2023/12/04 16:00:48;;;;;;;49.30;25.35;;;-1.80;99.90;;;;;;5122706;28;20477;-51
2023/12/04 16:03:14;;;;;;;48.40;23.20;;;-1.70;99.90;;;;;;5121985;28;20397;-50
2023/12/04 16:05:41;;;;;;;52.53;26.35;;;-1.70;99.90;;;;;;5123150;28;20034;-50
2023/12/04 16:08:07;;;;;;;56.45;27.05;;;-1.80;99.90;;;;;;5122454;28;20574;-50
2023/12/04 16:10:35;;;;;;;54.78;25.83;;;-1.80;99.90;;;;;;5122781;28;20122;-50
2023/12/04 16:13:01;;;;;;;51.40;25.92;;;-1.70;99.90;;;;;;5120407;28;20029;-49
2023/12/04 16:15:27;;;;;;;54.97;27.60;;;-1.70;99.90;;;;;;5129631;27;20055;-49
2023/12/04 16:17:52;;;;;;;51.17;24.35;;;-1.70;99.90;;;;;;5123517;27;20905;-52
2023/12/04 16:20:18;;;;;;;52.80;25.35;;;-1.70;99.90;;;;;;5122670;27;20061;-51
2023/12/04 16:22:44;;;;;;;54.53;26.35;;;-1.80;99.90;;;;;;5121147;27;20134;-50
2023/12/04 16:25:10;;;;;;;50.42;25.85;;;-1.80;99.90;;;;;;5132631;27;20114;-50
2023/12/04 16:27:38;;;;;;;51.87;24.60;;;-1.80;99.90;;;;;;5128645;27;20082;-49
2023/12/04 16:30:05;;;;;;;50.53;25.10;;;-1.80;99.90;;;;;;5121856;28;20110;-50
2023/12/04 16:32:30;;;;;;;52.83;24.92;;;-1.80;99.90;;;;;;5125355;27;20039;-49
2023/12/04 16:34:56;;;;;;;51.35;24.73;;;-1.80;99.90;;;;;;5112683;28;20034;-50
2023/12/04 16:37:22;;;;;;;52.33;26.67;;;-1.80;99.90;;;;;;5109479;28;20027;-50
2023/12/04 19:26:28;;;;;;;59.97;26.00;;;-2.50;99.90;;;;;;5124738;27;20155;-49
2023/12/04 19:28:54;;;;;;;62.73;27.70;;;-2.50;99.90;;;;;;5124430;28;20019;-50
2023/12/04 19:31:19;;;;;;;63.77;28.17;;;-2.60;99.90;;;;;;5119318;27;21378;-49
2023/12/04 19:33:46;;;;;;;64.97;28.23;;;-2.50;99.90;;;;;;5113877;28;20110;-49
2023/12/04 19:36:13;;;;;;;56.83;26.25;;;-2.50;99.90;;;;;;5113236;28;20447;-48
2023/12/04 19:38:39;;;;;;;62.65;28.08;;;-2.50;99.90;;;;;;5109425;28;20035;-50
2023/12/04 19:41:05;;;;;;;62.53;29.27;;;-2.50;99.90;;;;;;5102758;28;20074;-50
2023/12/04 19:43:30;;;;;;;58.30;27.88;;;-2.50;99.90;;;;;;5108643;28;20502;-48
2023/12/04 19:45:56;;;;;;;63.35;29.73;;;-2.50;99.90;;;;;;5112627;28;20461;-48
2023/12/04 19:48:23;;;;;;;72.80;29.67;;;-2.50;99.90;;;;;;5116686;28;20534;-50
2023/12/04 19:50:48;;;;;;;62.03;28.42;;;-2.50;99.90;;;;;;5111942;28;20027;-48
2023/12/04 19:53:15;;;;;;;69.83;30.33;;;-2.50;99.90;;;;;;5112087;28;20031;-48
2023/12/04 19:55:40;;;;;;;68.47;30.63;;;-2.50;99.90;;;;;;5112357;28;20427;-51
2023/12/04 19:58:06;;;;;;;67.82;31.08;;;-2.50;99.90;;;;;;5113244;27;20130;-49
2023/12/04 20:00:34;;;;;;;57.53;29.43;;;-2.50;99.90;;;;;;5117998;28;20074;-50
2023/12/04 20:03:00;;;;;;;66.90;30.38;;;-2.50;99.90;;;;;;5113536;28;20031;-50
2023/12/04 20:05:26;;;;;;;61.37;31.37;;;-2.50;99.90;;;;;;5118309;27;20080;-50
2023/12/04 20:07:51;;;;;;;70.45;34.75;;;-2.50;99.90;;;;;;5116034;28;20031;-49
2023/12/04 20:10:17;;;;;;;68.88;32.05;;;-2.50;99.90;;;;;;5112165;27;20097;-50
2023/12/04 20:12:43;;;;;;;76.55;33.67;;;-2.50;99.90;;;;;;5114616;28;20027;-50
2023/12/04 20:15:11;;;;;;;73.40;35.37;;;-2.60;99.90;;;;;;5111081;28;20039;-49
2023/12/04 20:17:37;;;;;;;72.70;34.83;;;-2.60;99.90;;;;;;5111780;28;20031;-51
2023/12/04 20:20:03;;;;;;;74.30;31.85;;;-2.60;99.90;;;;;;5113945;28;20640;-49
2023/12/04 20:22:29;;;;;;;79.23;34.73;;;-2.60;99.90;;;;;;5113920;28;20127;-50
2023/12/04 20:24:54;;;;;;;80.03;37.17;;;-2.60;99.90;;;;;;5108338;27;20460;-50
2023/12/04 20:27:20;;;;;;;73.47;35.53;;;-2.50;99.90;;;;;;5114414;27;20037;-49
2023/12/04 20:29:46;;;;;;;70.28;34.63;;;-2.60;99.90;;;;;;5122915;27;20147;-52
2023/12/04 20:32:12;;;;;;;74.30;34.83;;;-2.50;99.90;;;;;;5122846;27;20027;-48
2023/12/04 20:34:39;;;;;;;77.88;36.33;;;-2.50;99.90;;;;;;5122828;27;20019;-49
2023/12/04 20:37:05;;;;;;;76.50;36.05;;;-2.50;99.90;;;;;;5113114;28;20088;-50
2023/12/04 20:39:31;;;;;;;69.88;33.28;;;-2.50;99.90;;;;;;5110350;28;20034;-50
2023/12/04 20:41:57;;;;;;;78.40;35.08;;;-2.60;99.90;;;;;;5108973;28;20031;-49
2023/12/04 20:44:23;;;;;;;69.37;35.20;;;-2.50;99.90;;;;;;5101361;28;20079;-50
2023/12/04 20:46:52;;;;;;;73.80;35.80;;;-2.50;99.90;;;;;;5098122;28;20030;-50
2023/12/04 20:49:17;;;;;;;78.50;36.33;;;-2.50;99.90;;;;;;5098466;28;20031;-50
2023/12/04 20:51:43;;;;;;;69.90;35.03;;;-2.50;99.90;;;;;;5099868;28;20036;-48
2023/12/04 20:54:09;;;;;;;74.13;35.20;;;-2.50;99.90;;;;;;5095980;28;20049;-49
2023/12/04 20:56:34;;;;;;;75.30;35.33;;;-2.50;99.90;;;;;;5095507;28;20475;-48
2023/12/04 20:59:00;;;;;;;75.88;35.90;;;-2.60;99.90;;;;;;5099981;28;20035;-50
2023/12/04 21:01:26;;;;;;;78.60;36.75;;;-2.60;99.90;;;;;;5089482;28;20070;-51
2023/12/04 21:03:52;;;;;;;82.07;36.53;;;-2.60;99.90;;;;;;5088814;28;20040;-50
2023/12/04 21:06:18;;;;;;;75.38;35.08;;;-2.50;99.90;;;;;;5088161;28;20470;-49
2023/12/04 21:08:43;;;;;;;79.05;36.88;;;-2.60;99.90;;;;;;5088405;28;20043;-50
2023/12/04 21:11:09;;;;;;;68.97;33.67;;;-2.50;99.90;;;;;;5097496;28;20058;-50
2023/12/04 21:13:35;;;;;;;74.57;32.23;;;-2.50;99.90;;;;;;5101020;28;20055;-49
2023/12/04 21:16:00;;;;;;;72.93;36.43;;;-2.60;99.90;;;;;;5091183;28;20023;-49
2023/12/04 21:18:26;;;;;;;71.97;33.97;;;-2.60;99.90;;;;;;5104060;28;20076;-51
2023/12/04 21:20:51;;;;;;;75.47;32.17;;;-2.50;99.90;;;;;;5107857;28;20051;-50
2023/12/04 21:23:17;;;;;;;80.13;36.90;;;-2.50;99.90;;;;;;5094510;28;20109;-50
2023/12/04 21:25:43;;;;;;;79.95;37.65;;;-2.50;99.90;;;;;;5096715;28;20044;-50
2023/12/04 21:28:08;;;;;;;83.03;36.47;;;-2.50;99.90;;;;;;5098231;28;20019;-49
2023/12/04 21:30:35;;;;;;;77.97;35.90;;;-2.50;99.90;;;;;;5098401;28;20480;-49
2023/12/04 21:33:01;;;;;;;78.20;37.72;;;-2.50;99.90;;;;;;5098473;28;20042;-51
2023/12/04 21:35:27;;;;;;;77.57;36.90;;;-2.50;99.90;;;;;;5095869;28;20126;-51
2023/12/04 21:37:52;;;;;;;84.55;36.85;;;-2.50;99.90;;;;;;5090230;28;20028;-49
2023/12/04 21:40:18;;;;;;;77.22;35.40;;;-2.50;99.90;;;;;;5087721;28;20020;-50
2023/12/04 21:42:44;;;;;;;79.75;36.20;;;-2.50;99.90;;;;;;5091209;28;20031;-49
2023/12/04 21:45:10;;;;;;;69.43;35.33;;;-2.50;99.90;;;;;;5087628;28;20090;-49
2023/12/04 21:47:36;;;;;;;83.93;35.30;;;-2.50;99.90;;;;;;5098390;28;20057;-48
2023/12/04 21:50:03;;;;;;;75.33;35.23;;;-2.40;99.90;;;;;;5102986;28;20027;-49
2023/12/04 21:52:28;;;;;;;81.40;34.67;;;-2.40;99.90;;;;;;5105827;28;20027;-50
2023/12/04 21:54:54;;;;;;;78.40;36.05;;;-2.50;99.90;;;;;;5098068;28;20024;-51
2023/12/04 21:57:20;;;;;;;74.75;34.63;;;-2.50;99.90;;;;;;5097301;28;20084;-50
2023/12/04 21:59:45;;;;;;;75.57;34.60;;;-2.50;99.90;;;;;;5096053;28;20023;-49
2023/12/04 22:02:11;;;;;;;72.53;34.20;;;-2.50;99.90;;;;;;5108241;28;20080;-49
2023/12/04 22:04:37;;;;;;;79.50;37.50;;;-2.60;99.90;;;;;;5108034;28;20031;-50
2023/12/04 22:07:03;;;;;;;80.22;37.15;;;-2.60;99.90;;;;;;5107465;28;20548;-47
2023/12/04 22:09:29;;;;;;;83.18;35.75;;;-2.60;99.90;;;;;;5089702;28;20043;-48
2023/12/04 22:11:55;;;;;;;76.05;34.83;;;-2.60;99.90;;;;;;5087364;28;20569;-49
2023/12/04 22:14:22;;;;;;;79.35;36.53;;;-2.60;99.90;;;;;;5087898;28;20072;-49
2023/12/04 22:16:48;;;;;;;83.20;38.72;;;-2.60;99.90;;;;;;5090550;28;20119;-51
2023/12/04 22:19:13;;;;;;;89.95;40.35;;;-2.60;99.90;;;;;;5094038;28;20127;-51
2023/12/04 22:21:39;;;;;;;76.80;37.90;;;-2.60;99.90;;;;;;5087728;28;20111;-49
